Time;durP1;ratioP1;P1;durP2;ratioP2;P2;SDS_P1;SDS_P2;PMS_P1;PMS_P2;Temp;Humidity;BMP_temperature;BMP_pressure;BME280_temperature;BME280_humidity;BME280_pressure;Samples;Min_cycle;Max_cycle;Signal;HPM_P1;HPM_P2
2023/05/30 00:02:05;;;;;;;;;;;;;;;18.50;100.00;99641.53;5008837;28;19917;-75
2023/05/30 00:04:31;;;;;;;;;;;;;;;18.49;100.00;99639.09;5001505;28;19992;-75
2023/05/30 00:06:56;;;;;;;;;;;;;;;18.50;100.00;99635.38;5009094;28;19925;-75
2023/05/30 00:09:22;;;;;;;;;;;;;;;18.49;100.00;99633.75;5005562;28;19921;-76
2023/05/30 00:11:48;;;;;;;;;;;;;;;18.48;100.00;99632.09;5005570;28;19952;-75
2023/05/30 00:14:20;;;;;;;;;;;;;;;18.37;100.00;99630.75;5006526;28;20273;-75
2023/05/30 00:16:46;;;;;;;;;;;;;;;18.27;100.00;99636.41;5007668;28;20412;-76
2023/05/30 00:19:11;;;;;;;;;;;;;;;18.28;100.00;99632.72;5005247;28;19921;-76
2023/05/30 00:21:37;;;;;;;;;;;;;;;18.29;100.00;99639.72;5008800;28;20029;-75
2023/05/30 00:24:04;;;;;;;;;;;;;;;18.27;100.00;99647.09;5005069;28;19917;-75
2023/05/30 00:26:29;;;;;;;;;;;;;;;18.28;100.00;99643.41;5008086;28;20279;-75
2023/05/30 00:28:55;;;;;;;;;;;;;;;18.18;100.00;99637.56;5005120;28;19925;-75
2023/05/30 00:31:20;;;;;;;;;;;;;;;18.16;100.00;99639.56;5009706;28;19917;-75
2023/05/30 00:33:45;;;;;;;;;;;;;;;18.16;100.00;99644.09;4984319;28;20403;-75
2023/05/30 00:36:11;;;;;;;;;;;;;;;18.13;100.00;99642.63;5007732;28;19918;-75
2023/05/30 00:38:36;;;;;;;;;;;;;;;18.13;100.00;99637.28;5004702;28;19922;-74
2023/05/30 00:41:02;;;;;;;;;;;;;;;18.16;100.00;99638.75;5008418;28;19921;-75
2023/05/30 00:43:27;;;;;;;;;;;;;;;18.18;100.00;99636.72;5004332;28;19918;-74
2023/05/30 00:45:54;;;;;;;;;;;;;;;18.12;100.00;99638.31;5008458;28;20346;-76
2023/05/30 00:48:21;;;;;;;;;;;;;;;18.07;100.00;99634.56;5004166;28;19917;-76
2023/05/30 00:50:47;;;;;;;;;;;;;;;18.06;100.00;99639.06;5005598;28;19964;-75
2023/05/30 00:53:12;;;;;;;;;;;;;;;18.04;100.00;99635.75;5004662;28;20062;-75
2023/05/30 00:55:37;;;;;;;;;;;;;;;18.06;100.00;99625.72;4986646;28;19976;-76
2023/05/30 00:58:03;;;;;;;;;;;;;;;18.02;100.00;99624.44;5002568;28;19929;-76
2023/05/30 01:00:29;;;;;;;;;;;;;;;18.02;100.00;99627.13;5005629;28;19917;-75
2023/05/30 01:02:59;;;;;;;;;;;;;;;18.05;100.00;99624.03;5002065;28;20466;-75
2023/05/30 01:05:26;;;;;;;;;;;;;;;17.91;100.00;99624.91;5005888;28;20409;-76
2023/05/30 01:07:52;;;;;;;;;;;;;;;17.93;100.00;99625.56;5005265;28;19939;-75
2023/05/30 01:10:18;;;;;;;;;;;;;;;17.94;100.00;99627.22;4989950;28;20373;-75
2023/05/30 01:13:00;;;;;;;;;;;;;;;17.90;100.00;99628.63;5004374;28;19917;-76
2023/05/30 01:15:27;;;;;;;;;;;;;;;17.78;100.00;99627.44;4987835;28;19917;-75
2023/05/30 01:18:05;;;;;;;;;;;;;;;17.63;100.00;99631.97;5004443;28;19969;-74
2023/05/30 01:20:40;;;;;;;;;;;;;;;17.47;100.00;99632.97;4999210;28;19917;-74
2023/05/30 01:23:24;;;;;;;;;;;;;;;17.39;100.00;99630.38;5006499;28;20358;-74
2023/05/30 01:25:59;;;;;;;;;;;;;;;17.43;100.00;99637.84;5004617;28;20374;-74
2023/05/30 01:28:28;;;;;;;;;;;;;;;17.29;100.00;99636.00;4986781;28;20370;-75
2023/05/30 01:30:56;;;;;;;;;;;;;;;17.28;100.00;99645.00;4987394;28;19918;-74
2023/05/30 01:33:21;;;;;;;;;;;;;;;17.29;100.00;99636.00;5001398;28;19917;-74
2023/05/30 01:35:47;;;;;;;;;;;;;;;17.25;100.00;99640.06;4988063;28;19939;-73
2023/05/30 01:38:13;;;;;;;;;;;;;;;17.17;100.00;99648.13;5003939;28;19917;-75
2023/05/30 01:40:39;;;;;;;;;;;;;;;17.10;100.00;99652.53;4984704;28;19956;-74
2023/05/30 01:43:18;;;;;;;;;;;;;;;17.07;100.00;99652.91;5006095;28;20048;-74
2023/05/30 01:45:47;;;;;;;;;;;;;;;16.87;100.00;99651.75;4986826;28;19918;-74
2023/05/30 01:48:21;;;;;;;;;;;;;;;16.92;100.00;99647.53;4988071;28;20416;-74
2023/05/30 01:50:48;;;;;;;;;;;;;;;16.93;100.00;99643.03;4987425;28;19957;-76
2023/05/30 01:53:17;;;;;;;;;;;;;;;16.92;100.00;99634.22;5004158;28;19913;-75
2023/05/30 01:55:44;;;;;;;;;;;;;;;16.97;100.00;99642.50;4989345;28;19917;-75
2023/05/30 01:58:12;;;;;;;;;;;;;;;17.06;100.00;99635.25;5004543;28;20025;-75
2023/05/30 02:00:37;;;;;;;;;;;;;;;17.14;100.00;99637.84;4990182;28;20735;-75
2023/05/30 02:03:03;;;;;;;;;;;;;;;17.21;100.00;99644.09;5004328;28;19917;-74
2023/05/30 02:05:28;;;;;;;;;;;;;;;17.28;100.00;99639.69;5003380;28;19953;-74
2023/05/30 02:07:53;;;;;;;;;;;;;;;17.32;100.00;99635.63;5004321;28;20067;-74
2023/05/30 02:10:19;;;;;;;;;;;;;;;17.38;100.00;99642.88;4987710;28;19951;-74
2023/05/30 02:12:48;;;;;;;;;;;;;;;17.40;100.00;99642.72;5004268;28;19925;-73
2023/05/30 02:15:13;;;;;;;;;;;;;;;17.28;100.00;99645.00;4986178;28;19917;-74
2023/05/30 02:17:40;;;;;;;;;;;;;;;17.27;100.00;99648.69;4985443;28;19943;-75
2023/05/30 02:20:09;;;;;;;;;;;;;;;17.23;100.00;99647.41;5007674;28;19917;-74
2023/05/30 02:22:35;;;;;;;;;;;;;;;17.25;100.00;99645.38;5006540;28;20239;-74
2023/05/30 02:25:01;;;;;;;;;;;;;;;17.28;100.00;99645.00;5004715;28;19917;-73
2023/05/30 02:27:27;;;;;;;;;;;;;;;17.30;100.00;99643.00;4986367;28;19925;-74
2023/05/30 02:29:52;;;;;;;;;;;;;;;17.28;100.00;99639.69;5009817;28;19967;-74
2023/05/30 02:32:17;;;;;;;;;;;;;;;17.01;100.00;99643.81;4986929;28;19918;-74
2023/05/30 02:34:44;;;;;;;;;;;;;;;16.84;100.00;99646.81;5004956;28;20393;-74
2023/05/30 02:37:10;;;;;;;;;;;;;;;16.74;100.00;99647.88;4985376;28;19924;-74
2023/05/30 02:39:37;;;;;;;;;;;;;;;16.64;100.00;99647.28;4987630;28;19944;-74
2023/05/30 02:42:02;;;;;;;;;;;;;;;16.62;100.00;99649.31;4983116;28;19918;-73
2023/05/30 02:44:28;;;;;;;;;;;;;;;16.57;100.00;99646.31;4992892;28;19913;-74
2023/05/30 02:46:54;;;;;;;;;;;;;;;16.52;100.00;99648.69;4982829;28;19964;-74
2023/05/30 02:49:20;;;;;;;;;;;;;;;16.46;100.00;99653.91;4988224;28;19919;-74
2023/05/30 02:51:45;;;;;;;;;;;;;;;16.39;100.00;99649.28;4982609;28;19917;-74
2023/05/30 02:54:17;;;;;;;;;;;;;;;16.46;100.00;99652.06;4985030;28;20609;-75
2023/05/30 02:57:12;;;;;;;;;;;;;;;16.47;100.00;99655.56;4986082;28;19959;-75
2023/05/30 02:59:51;;;;;;;;;;;;;;;16.38;100.00;99652.13;4982060;28;19921;-75
2023/05/30 03:02:17;;;;;;;;;;;;;;;16.36;100.00;99649.66;4985385;28;19925;-75
2023/05/30 03:04:45;;;;;;;;;;;;;;;16.39;100.00;99653.78;4985288;28;20278;-75
2023/05/30 03:07:17;;;;;;;;;;;;;;;16.45;100.00;99653.06;4987759;28;19917;-74
2023/05/30 03:09:46;;;;;;;;;;;;;;;16.53;100.00;99658.34;4991282;28;19921;-75
2023/05/30 03:12:11;;;;;;;;;;;;;;;16.52;100.00;99654.03;5020862;28;19918;-74
2023/05/30 03:14:37;;;;;;;;;;;;;;;16.47;100.00;99645.75;4986280;28;20024;-74
2023/05/30 03:17:03;;;;;;;;;;;;;;;16.52;100.00;99648.69;4992600;28;20036;-75
2023/05/30 03:19:28;;;;;;;;;;;;;;;16.57;100.00;99643.66;4986081;28;19918;-74
2023/05/30 03:21:55;;;;;;;;;;;;;;;16.52;100.00;99646.03;4988678;28;19944;-74
2023/05/30 03:24:21;;;;;;;;;;;;;;;16.47;100.00;99643.09;5018077;28;19921;-75
2023/05/30 03:26:47;;;;;;;;;;;;;;;16.44;100.00;99646.09;5017969;28;20016;-74
2023/05/30 03:29:14;;;;;;;;;;;;;;;16.42;100.00;99642.78;4987236;28;19940;-75
2023/05/30 03:31:40;;;;;;;;;;;;;;;16.47;100.00;99648.41;4988321;28;19921;-75
2023/05/30 03:34:06;;;;;;;;;;;;;;;16.46;100.00;99638.75;4983558;28;19926;-75
2023/05/30 03:36:33;;;;;;;;;;;;;;;16.42;100.00;99648.13;4989393;28;19918;-73
2023/05/30 03:38:59;;;;;;;;;;;;;;;16.47;100.00;99655.56;4985629;28;19917;-73
2023/05/30 03:41:25;;;;;;;;;;;;;;;16.34;100.00;99656.16;4990422;28;19973;-74
2023/05/30 03:43:50;;;;;;;;;;;;;;;16.27;100.00;99655.19;4986417;28;19953;-74
2023/05/30 03:46:19;;;;;;;;;;;;;;;16.16;100.00;99652.94;4986554;28;20280;-75
2023/05/30 03:48:48;;;;;;;;;;;;;;;16.15;100.00;99653.94;4987574;28;19928;-74
2023/05/30 03:51:13;;;;;;;;;;;;;;;16.13;100.00;99647.97;4988187;28;20013;-74
2023/05/30 03:53:39;;;;;;;;;;;;;;;15.92;100.00;99645.94;4982878;28;20446;-75
2023/05/30 03:56:06;;;;;;;;;;;;;;;15.89;100.00;99652.44;4973621;28;20016;-74
2023/05/30 03:58:32;;;;;;;;;;;;;;;15.82;100.00;99646.16;4985514;28;19953;-75
2023/05/30 04:01:00;;;;;;;;;;;;;;;15.75;100.00;99650.50;4968939;28;19988;-75
2023/05/30 04:03:25;;;;;;;;;;;;;;;15.71;100.00;99654.53;4983649;28;19925;-74
2023/05/30 04:05:51;;;;;;;;;;;;;;;15.70;100.00;99652.88;4985791;28;19918;-75
2023/05/30 04:08:16;;;;;;;;;;;;;;;15.66;100.00;99656.03;4989287;28;19925;-75
2023/05/30 04:10:42;;;;;;;;;;;;;;;15.49;100.00;99664.03;4987607;28;19921;-75
2023/05/30 04:13:07;;;;;;;;;;;;;;;15.33;100.00;99668.56;4983723;28;19918;-74
2023/05/30 04:15:33;;;;;;;;;;;;;;;15.18;100.00;99672.94;4984210;28;20012;-76
2023/05/30 04:18:01;;;;;;;;;;;;;;;15.10;100.00;99671.13;4985346;28;19918;-74
2023/05/30 04:20:26;;;;;;;;;;;;;;;15.09;100.00;99666.81;4982605;28;19922;-75
2023/05/30 04:22:51;;;;;;;;;;;;;;;15.06;100.00;99660.00;4987877;28;19928;-74
2023/05/30 04:25:17;;;;;;;;;;;;;;;15.19;100.00;99671.94;5018814;28;19957;-74
2023/05/30 04:27:44;;;;;;;;;;;;;;;15.31;100.00;99674.09;4980177;28;20050;-74
2023/05/30 04:30:10;;;;;;;;;;;;;;;15.33;100.00;99673.91;4987779;28;19918;-75
2023/05/30 04:32:35;;;;;;;;;;;;;;;15.26;100.00;99672.91;4986791;28;20271;-74
2023/05/30 04:35:05;;;;;;;;;;;;;;;15.23;100.00;99676.75;4987424;28;19957;-75
2023/05/30 04:37:33;;;;;;;;;;;;;;;15.32;100.00;99674.88;4984393;28;20016;-75
2023/05/30 04:39:59;;;;;;;;;;;;;;;15.42;100.00;99680.88;4983319;28;19918;-74
2023/05/30 04:42:28;;;;;;;;;;;;;;;15.51;100.00;99685.97;4986345;28;20370;-74
2023/05/30 04:44:54;;;;;;;;;;;;;;;15.56;100.00;99688.16;4996715;28;19945;-75
2023/05/30 04:47:23;;;;;;;;;;;;;;;15.64;100.00;99687.31;4984893;28;19918;-74
2023/05/30 04:49:53;;;;;;;;;;;;;;;15.65;100.00;99692.47;4983543;28;19918;-75
2023/05/30 04:52:19;;;;;;;;;;;;;;;15.68;100.00;99692.09;4986898;28;20393;-75
2023/05/30 04:54:44;;;;;;;;;;;;;;;15.74;100.00;99690.56;4986458;28;19956;-75
2023/05/30 04:57:10;;;;;;;;;;;;;;;15.73;100.00;99694.22;4981752;28;19957;-75
2023/05/30 04:59:35;;;;;;;;;;;;;;;15.67;100.00;99697.63;4966682;28;19922;-75
2023/05/30 05:02:01;;;;;;;;;;;;;;;15.70;100.00;99695.44;4988242;28;20028;-79
2023/05/30 05:04:26;;;;;;;;;;;;;;;15.82;100.00;99688.72;4985447;28;19957;-76
2023/05/30 05:06:51;;;;;;;;;;;;;;;15.86;100.00;99683.88;4986168;28;19918;-77
2023/05/30 05:09:17;;;;;;;;;;;;;;;15.83;100.00;99689.56;4985384;28;19925;-75
2023/05/30 05:11:43;;;;;;;;;;;;;;;15.78;100.00;99687.44;4987083;28;20378;-76
2023/05/30 05:14:09;;;;;;;;;;;;;;;15.84;100.00;99686.72;4984416;28;20370;-76
2023/05/30 05:16:34;;;;;;;;;;;;;;;15.90;100.00;99686.00;4992119;28;19929;-83
2023/05/30 05:18:59;;;;;;;;;;;;;;;15.94;100.00;99692.66;4987697;28;19918;-79
2023/05/30 05:21:25;;;;;;;;;;;;;;;16.04;100.00;99696.94;4989166;28;20454;-80
2023/05/30 05:23:50;;;;;;;;;;;;;;;16.12;100.00;99700.41;4984869;28;19929;-80
2023/05/30 05:26:15;;;;;;;;;;;;;;;16.21;100.00;99693.19;5000226;28;20498;-78
2023/05/30 05:28:41;;;;;;;;;;;;;;;16.22;100.00;99697.50;5000472;28;19917;-76
2023/05/30 05:31:06;;;;;;;;;;;;;;;16.25;100.00;99697.16;5005250;28;20397;-77
2023/05/30 05:33:33;;;;;;;;;;;;;;;16.27;100.00;99697.81;5001899;28;20300;-76
2023/05/30 05:35:59;;;;;;;;;;;;;;;16.30;100.00;99692.97;5008598;28;19921;-78
2023/05/30 05:38:26;;;;;;;;;;;;;;;16.45;100.00;99694.84;5005212;28;19979;-77
2023/05/30 05:40:51;;;;;;;;;;;;;;;16.58;100.00;99690.59;5004817;28;19972;-79
2023/05/30 05:43:16;;;;;;;;;;;;;;;16.69;100.00;99686.72;5005960;28;19926;-76
2023/05/30 05:45:42;;;;;;;;;;;;;;;16.63;100.00;99688.25;5008081;28;19921;-77
2023/05/30 05:48:09;;;;;;;;;;;;;;;16.67;100.00;99689.56;5006188;28;19917;-77
2023/05/30 05:50:34;;;;;;;;;;;;;;;16.63;100.00;99688.25;5009763;28;20358;-77
2023/05/30 05:52:59;;;;;;;;;;;;;;;16.68;100.00;99685.88;5004512;28;19963;-78
2023/05/30 05:55:25;;;;;;;;;;;;;;;16.71;100.00;99690.03;5007516;28;19917;-77
2023/05/30 05:57:51;;;;;;;;;;;;;;;16.70;100.00;99683.88;5003852;28;19944;-79
2023/05/30 06:00:17;;;;;;;;;;;;;;;16.70;100.00;99683.88;5007895;28;20417;-80
2023/05/30 06:02:43;;;;;;;;;;;;;;;16.78;100.00;99686.50;5008655;28;19924;-80
2023/05/30 06:05:09;;;;;;;;;;;;;;;16.77;100.00;99684.00;5011387;28;19918;-84
2023/05/30 06:07:34;;;;;;;;;;;;;;;16.87;100.00;99691.75;5000133;28;19917;-87
2023/05/30 06:10:00;;;;;;;;;;;;;;;16.98;100.00;99693.97;5015274;28;19906;-82
2023/05/30 06:12:25;;;;;;;;;;;;;;;17.07;100.00;99695.56;5023600;28;19921;-80
2023/05/30 06:14:50;;;;;;;;;;;;;;;17.12;100.00;99698.53;5020116;28;19927;-80
2023/05/30 06:17:16;;;;;;;;;;;;;;;17.14;100.00;99699.19;5022057;28;19913;-81
2023/05/30 06:19:42;;;;;;;;;;;;;;;17.12;100.00;99698.53;5008908;28;19937;-81
2023/05/30 06:22:08;;;;;;;;;;;;;;;17.15;100.00;99703.47;4985426;28;19925;-81
2023/05/30 06:24:59;;;;;;;;;;;;;;;17.23;100.00;99700.75;4996045;28;20332;-81
2023/05/30 06:27:24;;;;;;;;;;;;;;;17.28;100.00;99716.19;5001689;28;19917;-82
2023/05/30 06:29:50;;;;;;;;;;;;;;;17.32;100.00;99707.63;5009116;28;19917;-79
2023/05/30 06:32:15;;;;;;;;;;;;;;;17.31;100.00;99721.19;5008198;28;20294;-82
2023/05/30 06:34:41;;;;;;;;;;;;;;;17.27;100.00;99728.69;5005790;28;19961;-81
2023/05/30 06:37:06;;;;;;;;;;;;;;;17.31;100.00;99723.84;5006241;28;20015;-81
2023/05/30 06:39:31;;;;;;;;;;;;;;;17.36;100.00;99729.47;5004469;28;21313;-81
2023/05/30 06:41:56;;;;;;;;;;;;;;;17.34;100.00;99734.13;4985831;28;19921;-82
2023/05/30 06:44:36;;;;;;;;;;;;;;;17.38;100.00;99733.59;4980095;28;19943;-81
2023/05/30 06:47:02;;;;;;;;;;;;;;;17.30;100.00;99728.34;5008597;28;20004;-81
2023/05/30 06:49:27;;;;;;;;;;;;;;;17.33;100.00;99733.31;4992572;28;19913;-79
2023/05/30 06:51:53;;;;;;;;;;;;;;;17.34;100.00;99729.63;5006557;28;20373;-80
2023/05/30 06:54:18;;;;;;;;;;;;;;;17.36;100.00;99732.13;4986938;28;19921;-80
2023/05/30 06:56:43;;;;;;;;;;;;;;;17.40;100.00;99739.56;5003502;28;19979;-78
2023/05/30 06:59:09;;;;;;;;;;;;;;;17.52;100.00;99731.94;5003108;28;19928;-79
2023/05/30 07:01:34;;;;;;;;;;;;;;;17.63;100.00;99733.34;5003431;28;19972;-77
2023/05/30 07:04:00;;;;;;;;;;;;;;;17.69;100.00;99732.63;5002669;28;19918;-77
2023/05/30 07:06:27;;;;;;;;;;;;;;;17.73;100.00;99733.94;5001807;28;20008;-78
2023/05/30 07:08:52;;;;;;;;;;;;;;;17.86;100.00;99728.75;5006333;28;19917;-81
2023/05/30 07:11:17;;;;;;;;;;;;;;;17.88;100.00;99732.91;5006581;28;19973;-78
2023/05/30 07:13:43;;;;;;;;;;;;;;;17.88;100.00;99734.75;5008091;28;19921;-78
2023/05/30 07:16:08;;;;;;;;;;;;;;;17.98;100.00;99732.59;5008292;28;20293;-78
2023/05/30 07:18:33;;;;;;;;;;;;;;;18.07;100.00;99718.16;5005782;28;20373;-79
2023/05/30 07:20:59;;;;;;;;;;;;;;;18.12;100.00;99722.94;5006537;28;20353;-79
2023/05/30 07:23:24;;;;;;;;;;;;;;;18.20;100.00;99720.97;5006149;28;20397;-79
2023/05/30 07:25:49;;;;;;;;;;;;;;;18.24;100.00;99722.25;5009734;28;19917;-78
2023/05/30 07:28:14;;;;;;;;;;;;;;;18.33;100.00;99721.13;5009727;28;20350;-78
2023/05/30 07:30:40;;;;;;;;;;;;;;;18.45;100.00;99717.97;5005115;28;20355;-79
2023/05/30 07:33:05;;;;;;;;;;;;;;;18.61;100.00;99712.44;5008564;28;19917;-79
2023/05/30 07:35:30;;;;;;;;;;;;;;;18.74;100.00;99723.22;5006301;28;19944;-79
2023/05/30 07:37:56;;;;;;;;;;;;;;;18.82;100.00;99709.72;5009608;28;20436;-78
2023/05/30 07:40:21;;;;;;;;;;;;;;;18.97;100.00;99706.97;5005434;28;20271;-79
2023/05/30 07:42:47;;;;;;;;;;;;;;;19.04;100.00;99703.34;5005330;28;19925;-79
2023/05/30 07:45:15;;;;;;;;;;;;;;;19.10;100.00;99707.09;5005471;28;19933;-78
2023/05/30 07:47:41;;;;;;;;;;;;;;;19.18;100.00;99710.47;5007507;28;20012;-79
2023/05/30 07:50:07;;;;;;;;;;;;;;;19.23;100.00;99713.38;5006751;28;19961;-78
2023/05/30 07:52:32;;;;;;;;;;;;;;;19.28;100.00;99706.59;5007919;28;19961;-78
2023/05/30 07:54:58;;;;;;;;;;;;;;;19.34;100.00;99703.97;5005593;28;20307;-79
2023/05/30 07:57:23;;;;;;;;;;;;;;;19.27;100.00;99707.63;5008179;28;19964;-79
2023/05/30 07:59:48;;;;;;;;;;;;;;;19.33;100.00;99701.50;4984592;28;19957;-79
2023/05/30 08:02:14;;;;;;;;;;;;;;;19.42;100.00;99705.69;5002689;28;19928;-79
2023/05/30 08:04:39;;;;;;;;;;;;;;;19.49;100.00;99707.41;5005235;28;20425;-78
2023/05/30 08:07:05;;;;;;;;;;;;;;;19.59;100.00;99707.06;4990271;28;20425;-78
2023/05/30 08:09:31;;;;;;;;;;;;;;;19.72;100.00;99709.81;5006104;28;20370;-78
2023/05/30 08:11:58;;;;;;;;;;;;;;;19.83;100.00;99714.59;5005088;28;19922;-78
2023/05/30 08:14:23;;;;;;;;;;;;;;;19.88;100.00;99711.31;5008468;28;19963;-78
2023/05/30 08:16:48;;;;;;;;;;;;;;;19.97;100.00;99713.63;5006075;28;20012;-79
2023/05/30 08:19:16;;;;;;;;;;;;;;;20.08;100.00;99701.53;5007213;28;19940;-78
2023/05/30 08:21:43;;;;;;;;;;;;;;;20.18;100.00;99706.50;5001870;28;19940;-78
2023/05/30 08:24:11;;;;;;;;;;;;;;;20.31;100.00;99695.84;5006683;28;19917;-78
2023/05/30 08:26:36;;;;;;;;;;;;;;;20.40;100.00;99700.00;5006401;28;19918;-78
2023/05/30 08:29:03;;;;;;;;;;;;;;;20.44;100.00;99701.25;4986340;28;19917;-79
2023/05/30 08:31:30;;;;;;;;;;;;;;;20.55;100.00;99697.16;5004308;28;20008;-78
2023/05/30 08:33:55;;;;;;;;;;;;;;;20.67;100.00;99693.69;5007651;28;19924;-78
2023/05/30 08:36:21;;;;;;;;;;;;;;;20.77;100.00;99690.59;5003822;28;19913;-78
2023/05/30 08:38:53;;;;;;;;;;;;;;;20.83;100.00;99689.75;5005008;28;19979;-78
2023/05/30 08:41:19;;;;;;;;;;;;;;;20.94;100.00;99685.63;5005216;28;19917;-78
2023/05/30 08:43:45;;;;;;;;;;;;;;;21.00;100.00;99684.81;5006687;28;19913;-78
2023/05/30 08:46:11;;;;;;;;;;;;;;;21.10;100.00;99693.25;5003095;28;20042;-78
2023/05/30 08:48:36;;;;;;;;;;;;;;;21.16;100.00;99684.41;5005768;28;20296;-77
2023/05/30 08:51:02;;;;;;;;;;;;;;;21.22;100.00;99683.59;5007503;28;19917;-77
2023/05/30 08:53:32;;;;;;;;;;;;;;;21.16;100.00;99689.78;5004192;28;20436;-78
2023/05/30 08:56:18;;;;;;;;;;;;;;;21.29;100.00;99687.09;5004732;28;20008;-79
2023/05/30 08:58:47;;;;;;;;;;;;;;;21.39;100.00;99674.06;5003270;28;19921;-79
2023/05/30 09:01:12;;;;;;;;;;;;;;;21.43;100.00;99680.69;5005948;28;19918;-78
2023/05/30 09:03:42;;;;;;;;;;;;;;;21.50;100.00;99676.09;4988700;28;19925;-79
2023/05/30 09:06:08;;;;;;;;;;;;;;;21.54;100.00;99666.59;5003109;28;20001;-78
2023/05/30 09:08:34;;;;;;;;;;;;;;;21.59;100.00;99674.84;5007118;28;20004;-79
2023/05/30 09:11:00;;;;;;;;;;;;;;;21.62;100.00;99671.72;4986090;28;20518;-78
2023/05/30 09:13:25;;;;;;;;;;;;;;;21.70;100.00;99680.59;5007074;28;19993;-78
2023/05/30 09:15:51;;;;;;;;;;;;;;;21.78;100.00;99677.69;5007397;28;19918;-78
2023/05/30 09:18:17;;;;;;;;;;;;;;;21.79;100.00;99674.78;5008414;28;19925;-78
2023/05/30 09:20:43;;;;;;;;;;;;;;;21.87;100.00;99677.22;5003134;28;20522;-77
2023/05/30 09:23:08;;;;;;;;;;;;;;;21.88;100.00;99678.88;5006802;28;20385;-78
2023/05/30 09:25:42;;;;;;;;;;;;;;;21.93;100.00;99664.81;5002870;28;19924;-78
2023/05/30 09:28:07;;;;;;;;;;;;;;;21.94;100.00;99663.75;5006575;28;20451;-78
2023/05/30 09:30:32;;;;;;;;;;;;;;;21.99;100.00;99670.19;5002878;28;20024;-78
2023/05/30 09:33:01;;;;;;;;;;;;;;;22.09;100.00;99669.72;5007416;28;19970;-78
2023/05/30 09:35:27;;;;;;;;;;;;;;;22.18;100.00;99673.00;5003489;28;19921;-78
2023/05/30 09:37:52;;;;;;;;;;;;;;;22.21;100.00;99670.69;5005340;28;20301;-78
2023/05/30 09:40:17;;;;;;;;;;;;;;;22.29;100.00;99670.44;5002996;28;19934;-78
2023/05/30 09:42:44;;;;;;;;;;;;;;;22.35;100.00;99674.97;5004828;28;19921;-78
2023/05/30 09:45:10;;;;;;;;;;;;;;;22.41;100.00;99674.09;5003428;28;20404;-78
2023/05/30 09:47:39;;;;;;;;;;;;;;;22.48;100.00;99670.53;5005684;28;19925;-78
2023/05/30 09:50:06;;;;;;;;;;;;;;;22.55;100.00;99668.63;5004141;28;19964;-79
2023/05/30 09:52:31;;;;;;;;;;;;;;;22.60;100.00;99669.63;5006136;28;19965;-78
2023/05/30 09:54:58;;;;;;;;;;;;;;;22.70;100.00;99669.97;5003482;28;20342;-78
2023/05/30 09:57:24;;;;;;;;;;;;;;;22.82;100.00;99670.13;4987781;28;20016;-78
2023/05/30 09:59:50;;;;;;;;;;;;;;;22.92;100.00;99670.44;5004962;28;19917;-79
2023/05/30 10:02:22;;;;;;;;;;;;;;;22.98;100.00;99664.19;5014682;28;19940;-77
2023/05/30 10:04:50;;;;;;;;;;;;;;;23.02;100.00;99660.03;5012855;28;19932;-78
2023/05/30 10:07:17;;;;;;;;;;;;;;;23.08;100.00;99661.84;5015605;28;19917;-77
2023/05/30 10:09:44;;;;;;;;;;;;;;;23.08;100.00;99659.13;5013650;28;19921;-78
2023/05/30 10:12:09;;;;;;;;;;;;;;;23.13;100.00;99667.38;5018485;28;19917;-79
2023/05/30 10:14:34;;;;;;;;;;;;;;;23.19;100.00;99660.28;4983093;28;19925;-78
2023/05/30 10:17:03;;;;;;;;;;;;;;;23.24;100.00;99655.03;5008532;28;19921;-78
2023/05/30 10:19:37;;;;;;;;;;;;;;;23.24;100.00;99655.88;5007947;28;19918;-78
2023/05/30 10:22:06;;;;;;;;;;;;;;;23.28;100.00;99649.00;5007099;28;20020;-78
2023/05/30 10:24:31;;;;;;;;;;;;;;;23.32;100.00;99648.56;5009014;28;19925;-78
2023/05/30 10:26:59;;;;;;;;;;;;;;;23.36;100.00;99644.38;4989091;28;19929;-78
2023/05/30 10:29:28;;;;;;;;;;;;;;;23.42;100.00;99638.91;5007150;28;19918;-78
2023/05/30 10:31:54;;;;;;;;;;;;;;;23.47;100.00;99640.97;5004778;28;19917;-78
2023/05/30 10:34:21;;;;;;;;;;;;;;;23.52;100.00;99638.41;5007589;28;19917;-78
2023/05/30 10:36:47;;;;;;;;;;;;;;;23.53;100.00;99637.38;5008024;28;19918;-78
2023/05/30 10:39:24;;;;;;;;;;;;;;;23.58;100.00;99632.94;5008627;28;19979;-77
2023/05/30 10:42:07;;;;;;;;;;;;;;;23.62;100.00;99633.34;5007475;28;20390;-78
2023/05/30 10:44:39;;;;;;;;;;;;;;;23.71;97.07;99637.38;5006846;28;20000;-79
2023/05/30 10:47:20;;;;;;;;;;;;;;;23.78;95.24;99643.50;5008496;28;20334;-78
2023/05/30 10:49:48;;;;;;;;;;;;;;;23.83;95.26;99627.47;5005682;28;19952;-78
2023/05/30 10:52:17;;;;;;;;;;;;;;;23.91;93.57;99635.25;5006534;28;20373;-78
2023/05/30 10:54:44;;;;;;;;;;;;;;;23.98;92.94;99633.28;5008283;28;19933;-78
2023/05/30 10:57:31;;;;;;;;;;;;;;;24.01;93.44;99627.44;5008167;28;19918;-77
2023/05/30 11:00:19;;;;;;;;;;;;;;;24.06;92.86;99627.56;4985299;28;20298;-78
2023/05/30 11:02:52;;;;;;;;;;;;;;;24.18;93.91;99627.66;4996235;28;19918;-79
2023/05/30 11:05:30;;;;;;;;;;;;;;;24.26;93.31;99618.44;5009572;28;20021;-78
2023/05/30 11:07:56;;;;;;;;;;;;;;;24.34;94.95;99618.09;5006662;28;19928;-78
2023/05/30 11:10:25;;;;;;;;;;;;;;;24.35;93.76;99617.84;5011874;28;19917;-78
2023/05/30 11:12:51;;;;;;;;;;;;;;;24.43;95.71;99609.44;5005796;28;19960;-78
2023/05/30 11:15:17;;;;;;;;;;;;;;;24.48;94.46;99606.03;5013192;28;19971;-78
2023/05/30 11:17:42;;;;;;;;;;;;;;;24.53;94.26;99603.47;4985993;28;19921;-79
2023/05/30 11:20:09;;;;;;;;;;;;;;;24.56;94.79;99607.59;5008019;28;19979;-78
2023/05/30 11:22:37;;;;;;;;;;;;;;;24.59;95.75;99597.16;5007188;28;19918;-78
2023/05/30 11:25:28;;;;;;;;;;;;;;;24.70;93.93;99593.63;5006379;28;19924;-78
2023/05/30 11:28:00;;;;;;;;;;;;;;;24.78;94.98;99596.00;5006201;28;20008;-79
2023/05/30 11:30:25;;;;;;;;;;;;;;;24.75;93.96;99592.94;5005355;28;19972;-78
2023/05/30 11:32:53;;;;;;;;;;;;;;;24.73;95.73;99593.19;5009392;28;19921;-78
2023/05/30 11:35:18;;;;;;;;;;;;;;;24.72;95.43;99594.25;5005417;28;19960;-78
2023/05/30 11:37:44;;;;;;;;;;;;;;;24.74;95.55;99586.72;5008536;28;19960;-78
2023/05/30 11:40:13;;;;;;;;;;;;;;;24.73;95.05;99587.78;4971707;28;20294;-80
2023/05/30 11:42:38;;;;;;;;;;;;;;;24.77;96.63;99588.97;5007853;28;19997;-79
2023/05/30 11:45:03;;;;;;;;;;;;;;;24.84;97.57;99583.44;5005271;28;20004;-78
2023/05/30 11:47:29;;;;;;;;;;;;;;;24.97;98.49;99577.03;5005344;28;19924;-79
2023/05/30 11:49:57;;;;;;;;;;;;;;;25.11;97.56;99573.00;5005489;28;19917;-79
2023/05/30 11:52:23;;;;;;;;;;;;;;;25.25;96.88;99564.44;5004074;28;19924;-76
2023/05/30 11:54:48;;;;;;;;;;;;;;;25.33;95.64;99560.53;5005167;28;19917;-80
2023/05/30 11:57:17;;;;;;;;;;;;;;;25.31;99.77;99557.25;5006593;28;20020;-77
2023/05/30 11:59:44;;;;;;;;;;;;;;;25.32;97.47;99553.50;5004583;28;19925;-79
2023/05/30 12:02:10;;;;;;;;;;;;;;;25.39;96.79;99553.38;5008308;28;19925;-80
2023/05/30 12:04:37;;;;;;;;;;;;;;;25.39;96.73;99554.16;5005107;28;19918;-80
2023/05/30 12:07:04;;;;;;;;;;;;;;;25.54;96.78;99546.38;5004885;28;19918;-79
2023/05/30 12:09:34;;;;;;;;;;;;;;;25.58;97.64;99552.16;5004828;28;20102;-79
2023/05/30 12:12:00;;;;;;;;;;;;;;;25.54;96.13;99557.19;5008941;28;19925;-79
2023/05/30 12:14:44;;;;;;;;;;;;;;;25.28;95.96;99557.72;5008506;28;19917;-79
2023/05/30 12:17:11;;;;;;;;;;;;;;;25.47;94.19;99545.69;5006230;28;19917;-79
2023/05/30 12:19:36;;;;;;;;;;;;;;;25.77;92.00;99550.09;5006740;28;20389;-79
2023/05/30 12:22:04;;;;;;;;;;;;;;;26.01;88.62;99554.34;5008380;28;20003;-79
2023/05/30 12:24:33;;;;;;;;;;;;;;;26.37;87.45;99551.22;5005425;28;19917;-78
2023/05/30 12:26:59;;;;;;;;;;;;;;;26.73;85.28;99549.06;5005213;28;19918;-78
2023/05/30 12:29:27;;;;;;;;;;;;;;;27.05;84.30;99544.69;5000860;28;20394;-78
2023/05/30 12:31:53;;;;;;;;;;;;;;;27.36;82.97;99539.66;5006747;28;19918;-78
2023/05/30 12:34:21;;;;;;;9.30;8.40;;;;;;;27.56;81.09;99537.25;5001228;28;19964;-78
2023/05/30 12:36:48;;;;;;;10.65;8.65;;;;;;;27.46;80.16;99527.06;5004407;28;20041;-79
2023/05/30 12:39:14;;;;;;;12.57;8.55;;;;;;;27.61;79.02;99540.00;5001019;28;20033;-78